Time;durP1;ratioP1;P1;durP2;ratioP2;P2;SDS_P1;SDS_P2;PMS_P1;PMS_P2;Temp;Humidity;BMP_temperature;BMP_pressure;BME280_temperature;BME280_humidity;BME280_pressure;Samples;Min_cycle;Max_cycle;Signal;HPM_P1;HPM_P2
2023/12/15 00:01:45;;;;;;;24.70;15.77;;;;;;;5.04;100.00;102567.44;5137490;28;20063;-79
2023/12/15 00:04:17;;;;;;;21.87;14.77;;;;;;;4.98;100.00;102567.22;5111387;28;20032;-81
2023/12/15 00:06:49;;;;;;;27.08;16.60;;;;;;;4.97;100.00;102583.53;5132791;28;20035;-80
2023/12/15 00:09:20;;;;;;;22.20;16.27;;;;;;;4.96;100.00;102580.09;5137283;28;20102;-80
2023/12/15 00:11:51;;;;;;;26.47;17.40;;;;;;;4.96;100.00;102580.09;5136554;28;20047;-80
2023/12/15 00:14:24;;;;;;;23.95;17.90;;;;;;;4.96;100.00;102585.25;5136500;28;20054;-79
2023/12/15 00:16:55;;;;;;;24.30;18.70;;;;;;;5.00;100.00;102605.22;5135846;28;20040;-80
2023/12/15 00:19:27;;;;;;;24.90;18.60;;;;;;;5.01;100.00;102604.41;5137449;28;20059;-80
2023/12/15 00:21:58;;;;;;;26.07;19.57;;;;;;;5.02;100.00;102598.41;5137223;28;20047;-80
2023/12/15 00:24:29;;;;;;;32.40;20.03;;;;;;;5.04;100.00;102604.53;5137249;28;20054;-79
2023/12/15 00:27:01;;;;;;;29.00;21.27;;;;;;;5.04;100.00;102606.22;5137076;28;20035;-83
2023/12/15 00:29:32;;;;;;;29.17;19.67;;;;;;;5.07;100.00;102606.34;5136623;29;20032;-82
2023/12/15 00:32:04;;;;;;;30.00;21.97;;;;;;;5.06;100.00;102604.59;5137042;29;20119;-84
2023/12/15 00:34:35;;;;;;;30.33;20.23;;;;;;;5.10;100.00;102596.13;5136821;29;20078;-83
2023/12/15 00:37:07;;;;;;;29.57;21.53;;;;;;;5.07;100.00;102596.91;5136792;29;20510;-83
2023/12/15 00:39:38;;;;;;;30.33;22.00;;;;;;;5.07;100.00;102590.81;5135561;29;20028;-83
2023/12/15 00:42:09;;;;;;;31.17;22.07;;;;;;;5.09;100.00;102594.38;5136828;29;20039;-83
2023/12/15 00:44:41;;;;;;;34.87;22.30;;;;;;;5.10;100.00;102601.28;5135802;29;20115;-81
2023/12/15 00:47:14;;;;;;;38.80;25.40;;;;;;;5.10;100.00;102602.19;5137067;29;20485;-82
2023/12/15 00:49:45;;;;;;;29.65;22.73;;;;;;;5.14;100.00;102600.59;5136824;29;20078;-81
2023/12/15 00:52:17;;;;;;;32.57;23.87;;;;;;;5.13;100.00;102601.41;5136586;29;20031;-83
2023/12/15 00:54:48;;;;;;;35.00;23.73;;;;;;;5.15;100.00;102604.94;5136614;29;20090;-82
2023/12/15 00:57:19;;;;;;;34.77;23.70;;;;;;;5.18;100.00;102605.03;5135512;29;20031;-82
2023/12/15 00:59:51;;;;;;;34.30;23.30;;;;;;;5.18;100.00;102610.22;5137220;29;20499;-82
2023/12/15 01:02:22;;;;;;;38.50;23.33;;;;;;;5.21;100.00;102612.06;5138245;29;20043;-82
2023/12/15 01:04:53;;;;;;;39.70;25.10;;;;;;;5.22;100.00;102619.00;5152644;28;20031;-82
2023/12/15 01:07:28;;;;;;;36.90;23.90;;;;;;;5.20;100.00;102626.69;5137733;29;20122;-82
2023/12/15 01:09:59;;;;;;;33.45;23.30;;;;;;;5.20;100.00;102629.28;5137851;28;20040;-83
2023/12/15 01:12:30;;;;;;;38.13;25.57;;;;;;;5.23;100.00;102625.91;5136534;29;20059;-83
2023/12/15 01:15:02;;;;;;;33.67;24.07;;;;;;;5.22;100.00;102630.22;5137718;29;20051;-82
2023/12/15 01:17:33;;;;;;;33.23;23.83;;;;;;;5.25;100.00;102632.06;5139871;29;20079;-82
2023/12/15 01:20:05;;;;;;;31.93;22.97;;;;;;;5.25;100.00;102638.09;5222412;28;20028;-83
2023/12/15 01:22:37;;;;;;;37.47;25.80;;;;;;;5.24;100.00;102627.69;5139608;29;20461;-83
2023/12/15 01:25:09;;;;;;;35.47;25.40;;;;;;;5.26;100.00;102633.78;5222339;28;20336;-83
2023/12/15 01:27:41;;;;;;;37.42;24.67;;;;;;;5.25;100.00;102637.22;5140222;29;20035;-82
2023/12/15 01:30:12;;;;;;;36.40;24.90;;;;;;;5.23;100.00;102637.16;5140752;29;20042;-82
2023/12/15 01:32:44;;;;;;;31.97;23.37;;;;;;;5.28;100.00;102642.47;5143853;29;20035;-82
2023/12/15 01:35:15;;;;;;;36.77;25.00;;;;;;;5.28;100.00;102647.66;5143680;29;20110;-82
2023/12/15 01:37:47;;;;;;;31.83;23.50;;;;;;;5.28;100.00;102652.81;5144224;29;20032;-81
2023/12/15 01:40:19;;;;;;;32.57;23.87;;;;;;;5.29;100.00;102650.28;5226509;28;20039;-83
2023/12/15 01:42:50;;;;;;;33.30;23.90;;;;;;;5.27;100.00;102653.66;5144362;29;20044;-82
2023/12/15 01:45:21;;;;;;;28.70;23.50;;;;;;;5.27;100.00;102651.09;5144049;29;20537;-83
2023/12/15 01:47:54;;;;;;;34.33;23.63;;;;;;;5.27;100.00;102654.53;5224812;28;20119;-83
2023/12/15 01:50:25;;;;;;;32.53;22.23;;;;;;;5.27;100.00;102649.38;5140667;29;20038;-82
2023/12/15 01:52:57;;;;;;;30.30;23.33;;;;;;;5.27;100.00;102656.25;5221893;28;20035;-82
2023/12/15 01:55:28;;;;;;;30.67;22.73;;;;;;;5.29;100.00;102658.06;5139363;29;20121;-82
2023/12/15 01:57:59;;;;;;;33.00;22.90;;;;;;;5.28;100.00;102660.59;5139603;29;20359;-82
2023/12/15 02:00:31;;;;;;;29.03;22.67;;;;;;;5.30;100.00;102671.88;5139547;29;20032;-83
2023/12/15 02:03:03;;;;;;;33.43;23.10;;;;;;;5.29;100.00;102671.00;5221526;28;20054;-82
2023/12/15 02:05:34;;;;;;;30.57;22.07;;;;;;;5.31;100.00;102673.63;5139228;28;20032;-83
2023/12/15 02:08:05;;;;;;;29.77;22.40;;;;;;;5.33;100.00;102673.69;5153544;29;20040;-83
2023/12/15 02:10:38;;;;;;;29.30;22.70;;;;;;;5.34;100.00;102689.28;5138939;29;20036;-83
2023/12/15 02:13:09;;;;;;;29.45;22.08;;;;;;;5.34;100.00;102681.50;5139001;29;20056;-83
2023/12/15 02:15:40;;;;;;;32.90;23.10;;;;;;;5.34;100.00;102691.00;5139405;29;20043;-83
2023/12/15 02:18:12;;;;;;;28.50;23.30;;;;;;;5.34;100.00;102678.94;5139140;29;20055;-83
2023/12/15 02:20:43;;;;;;;34.93;22.80;;;;;;;5.33;100.00;102673.69;5139120;29;20044;-82
2023/12/15 02:23:15;;;;;;;30.43;22.27;;;;;;;5.33;100.00;102676.28;5138878;29;20063;-82
2023/12/15 02:25:46;;;;;;;27.20;23.10;;;;;;;5.33;100.00;102689.22;5138081;29;20048;-82
2023/12/15 02:28:17;;;;;;;34.07;22.93;;;;;;;5.33;100.00;102692.69;5138857;29;20474;-83
2023/12/15 02:30:49;;;;;;;32.07;23.43;;;;;;;5.35;100.00;102682.41;5138953;29;20447;-82
2023/12/15 02:33:20;;;;;;;36.57;24.73;;;;;;;5.33;100.00;102696.97;5138674;29;20028;-83
2023/12/15 02:35:51;;;;;;;39.73;24.60;;;;;;;5.35;100.00;102703.09;5137264;28;20043;-82
2023/12/15 02:38:23;;;;;;;29.63;23.37;;;;;;;5.38;100.00;102716.16;5139004;28;20051;-82
2023/12/15 02:40:54;;;;;;;38.10;26.60;;;;;;;5.36;100.00;102713.50;5136303;28;20024;-83
2023/12/15 02:43:26;;;;;;;34.93;24.30;;;;;;;5.40;100.00;102717.09;5137764;28;20044;-82
2023/12/15 02:45:57;;;;;;;36.53;25.73;;;;;;;5.40;100.00;102710.22;5138543;28;20043;-83
2023/12/15 02:48:28;;;;;;;38.87;26.17;;;;;;;5.43;100.00;102717.22;5138623;29;20067;-84
2023/12/15 02:51:00;;;;;;;41.50;27.07;;;;;;;5.43;100.00;102718.09;5138455;29;20031;-82
2023/12/15 02:53:31;;;;;;;37.83;26.27;;;;;;;5.43;100.00;102720.69;5138467;28;20024;-84
2023/12/15 02:56:03;;;;;;;42.47;26.70;;;;;;;5.45;100.00;102724.19;5138845;28;20039;-83
2023/12/15 02:58:35;;;;;;;43.80;28.25;;;;;;;5.45;100.00;102724.19;5138954;29;20035;-83
2023/12/15 03:01:06;;;;;;;39.53;26.60;;;;;;;5.48;100.00;102731.22;5138621;29;20036;-81
2023/12/15 03:03:37;;;;;;;46.07;27.13;;;;;;;5.50;100.00;102736.44;5137188;28;20089;-83
2023/12/15 03:06:09;;;;;;;41.30;27.80;;;;;;;5.52;100.00;102750.31;5138172;28;20059;-83
2023/12/15 03:08:40;;;;;;;43.73;29.00;;;;;;;5.51;100.00;102748.56;5138487;28;20071;-83
2023/12/15 03:11:12;;;;;;;47.20;28.60;;;;;;;5.51;100.00;102752.03;5138044;29;20057;-83
2023/12/15 03:13:43;;;;;;;45.40;26.80;;;;;;;5.54;100.00;102757.31;5137322;28;20056;-83
2023/12/15 03:16:16;;;;;;;40.07;26.23;;;;;;;5.53;100.00;102752.97;5138152;28;20027;-83
2023/12/15 03:18:47;;;;;;;45.65;26.77;;;;;;;5.55;100.00;102755.63;5138271;28;20038;-83
2023/12/15 03:21:19;;;;;;;50.63;30.80;;;;;;;5.52;100.00;102753.78;5138516;28;20040;-82
2023/12/15 03:23:50;;;;;;;49.03;30.40;;;;;;;5.54;100.00;102767.69;5137866;28;20114;-80
2023/12/15 03:26:22;;;;;;;46.93;28.03;;;;;;;5.54;100.00;102766.78;5136540;28;20036;-82
2023/12/15 03:28:53;;;;;;;45.97;29.67;;;;;;;5.55;100.00;102776.31;5137631;28;20548;-82
2023/12/15 03:31:24;;;;;;;49.87;30.13;;;;;;;5.55;100.00;102773.72;5137656;28;20090;-82
2023/12/15 03:33:56;;;;;;;47.27;30.70;;;;;;;5.59;100.00;102783.38;5138123;29;20035;-81
2023/12/15 03:36:27;;;;;;;53.90;29.97;;;;;;;5.56;100.00;102794.47;5138227;29;20054;-82
2023/12/15 03:38:59;;;;;;;49.83;29.57;;;;;;;5.58;100.00;102797.13;5136831;28;20089;-82
2023/12/15 03:41:30;;;;;;;47.80;30.40;;;;;;;5.58;100.00;102792.84;5137838;28;20067;-81
2023/12/15 03:44:01;;;;;;;50.40;29.90;;;;;;;5.61;100.00;102805.91;5120613;28;20097;-82
2023/12/15 03:46:33;;;;;;;54.63;30.53;;;;;;;5.60;100.00;102800.66;5137834;28;20335;-82
2023/12/15 03:49:04;;;;;;;52.33;29.87;;;;;;;5.61;100.00;102798.13;5152826;28;20437;-82
2023/12/15 03:51:36;;;;;;;55.00;31.10;;;;;;;5.62;100.00;102801.63;5137709;28;20036;-85
2023/12/15 03:54:07;;;;;;;52.37;32.60;;;;;;;5.62;100.00;102797.31;5138074;29;20035;-83
2023/12/15 03:56:39;;;;;;;57.17;30.93;;;;;;;5.63;100.00;102800.78;5137871;28;20039;-83
2023/12/15 03:59:10;;;;;;;58.40;32.87;;;;;;;5.65;100.00;102799.13;5190785;28;20086;-83
2023/12/15 04:01:41;;;;;;;55.07;33.13;;;;;;;5.65;100.00;102799.13;5241561;28;20034;-82
2023/12/15 04:04:13;;;;;;;63.80;33.93;;;;;;;5.66;100.00;102808.66;5241479;28;20052;-83
2023/12/15 04:06:44;;;;;;;57.00;31.73;;;;;;;5.70;100.00;102813.16;5241557;28;20342;-83
2023/12/15 04:09:15;;;;;;;56.63;33.63;;;;;;;5.71;100.00;102809.72;5241390;28;20112;-83
2023/12/15 04:11:47;;;;;;;68.77;34.73;;;;;;;5.71;100.00;102816.63;5241445;28;20057;-83
2023/12/15 04:14:18;;;;;;;76.53;35.60;;;;;;;5.71;100.00;102822.66;5240868;28;20184;-82
2023/12/15 04:16:49;;;;;;;72.67;35.97;;;;;;;5.75;100.00;102823.69;5241512;28;20077;-83
2023/12/15 04:19:21;;;;;;;68.47;36.80;;;;;;;5.72;100.00;102819.28;5241528;28;20473;-83
2023/12/15 04:21:52;;;;;;;74.87;37.97;;;;;;;5.73;100.00;102817.56;5241867;28;20041;-83
2023/12/15 04:24:25;;;;;;;76.97;37.43;;;;;;;5.72;100.00;102821.84;5241404;28;20083;-83
2023/12/15 04:26:56;;;;;;;70.90;37.63;;;;;;;5.75;100.00;102826.28;5241052;28;20030;-82
2023/12/15 04:29:27;;;;;;;80.40;38.37;;;;;;;5.76;100.00;102834.06;5241214;28;20092;-82
2023/12/15 04:31:59;;;;;;;72.20;38.10;;;;;;;5.78;100.00;102834.13;5241464;28;20063;-83
2023/12/15 04:34:33;;;;;;;81.13;40.83;;;;;;;5.79;100.00;102839.38;5241998;28;20085;-83
2023/12/15 04:37:04;;;;;;;85.47;39.63;;;;;;;5.83;100.00;102840.41;5241754;28;20033;-83
2023/12/15 04:39:36;;;;;;;78.50;39.77;;;;;;;5.85;100.00;102842.22;5241056;28;20499;-83
2023/12/15 04:42:07;;;;;;;77.50;41.90;;;;;;;5.87;100.00;102851.75;5241518;28;20485;-82
2023/12/15 04:44:39;;;;;;;83.33;41.33;;;;;;;5.85;100.00;102857.75;5240768;28;20104;-82
2023/12/15 04:47:11;;;;;;;85.82;40.08;;;;;;;5.87;100.00;102849.16;5240954;28;20076;-82
2023/12/15 04:49:42;;;;;;;84.50;39.80;;;;;;;5.87;100.00;102844.88;5258104;28;20033;-82
2023/12/15 04:52:14;;;;;;;75.17;38.33;;;;;;;5.87;100.00;102851.75;5245529;28;20464;-82
2023/12/15 04:54:45;;;;;;;81.43;39.43;;;;;;;5.87;100.00;102850.03;5260657;28;20037;-82
2023/12/15 04:57:16;;;;;;;84.77;43.20;;;;;;;5.86;100.00;102858.66;5245435;28;20373;-82
2023/12/15 04:59:48;;;;;;;79.23;40.40;;;;;;;5.85;100.00;102870.69;5245074;28;20033;-82
2023/12/15 05:02:19;;;;;;;82.80;40.73;;;;;;;5.86;100.00;102879.34;5245221;28;20037;-81
2023/12/15 05:04:50;;;;;;;81.00;40.27;;;;;;;5.90;100.00;102876.06;5245186;28;20025;-82
2023/12/15 05:07:22;;;;;;;85.37;41.90;;;;;;;5.89;100.00;102869.09;5245315;28;20037;-81
2023/12/15 05:09:54;;;;;;;84.50;42.10;;;;;;;5.90;100.00;102867.41;5245201;28;20112;-81
2023/12/15 05:12:26;;;;;;;87.30;43.53;;;;;;;5.91;100.00;102864.88;5244440;28;20140;-81
2023/12/15 05:14:57;;;;;;;92.07;46.43;;;;;;;5.93;100.00;102867.53;5245899;28;20116;-80
2023/12/15 05:17:29;;;;;;;85.83;42.50;;;;;;;5.94;100.00;102870.19;5249334;28;20038;-81
2023/12/15 05:20:02;;;;;;;91.77;44.67;;;;;;;5.93;100.00;102863.25;5257326;28;20072;-81
2023/12/15 05:22:33;;;;;;;88.47;42.42;;;;;;;5.95;100.00;102871.94;5260357;28;20329;-81
2023/12/15 05:25:05;;;;;;;88.70;44.33;;;;;;;5.96;100.00;102878.03;5262927;28;20041;-80
2023/12/15 05:27:36;;;;;;;87.97;44.03;;;;;;;5.99;100.00;102896.31;5262631;28;20055;-82
2023/12/15 05:30:09;;;;;;;88.23;43.97;;;;;;;5.99;100.00;102894.59;5247877;28;20073;-82
2023/12/15 05:32:41;;;;;;;91.72;44.75;;;;;;;5.98;100.00;102894.53;5246864;28;20025;-82
2023/12/15 05:35:12;;;;;;;94.27;45.97;;;;;;;6.01;100.00;102898.09;5254266;28;20037;-82
2023/12/15 05:37:43;;;;;;;99.00;45.23;;;;;;;5.99;100.00;102899.75;5258853;28;20124;-80
2023/12/15 05:40:15;;;;;;;90.70;46.90;;;;;;;6.01;100.00;102905.88;5254147;28;20028;-81
2023/12/15 05:42:47;;;;;;;91.82;45.45;;;;;;;6.03;100.00;102911.13;5253524;28;20042;-81
2023/12/15 05:45:19;;;;;;;98.43;48.20;;;;;;;6.03;100.00;102916.28;5253835;28;20420;-82
2023/12/15 05:47:50;;;;;;;98.30;49.73;;;;;;;6.03;100.00;102926.66;5249717;28;20472;-81
2023/12/15 05:50:21;;;;;;;105.17;49.97;;;;;;;6.02;100.00;102928.38;5244088;28;20030;-80
2023/12/15 05:52:53;;;;;;;103.13;52.77;;;;;;;6.02;100.00;102919.69;5244255;28;20030;-80
2023/12/15 05:55:24;;;;;;;99.60;51.03;;;;;;;6.02;100.00;102930.06;5243950;28;20034;-80
2023/12/15 05:57:55;;;;;;;97.83;50.57;;;;;;;6.06;100.00;102931.09;5243922;28;20385;-80
2023/12/15 06:00:27;;;;;;;103.13;51.23;;;;;;;6.05;100.00;102930.19;5243320;28;20032;-81
2023/12/15 06:02:58;;;;;;;98.17;50.77;;;;;;;6.03;100.00;102924.06;5243420;28;20037;-80
2023/12/15 06:05:34;;;;;;;102.73;52.23;;;;;;;6.04;100.00;102918.06;5243949;28;20037;-80
2023/12/15 06:08:05;;;;;;;102.35;50.70;;;;;;;6.05;100.00;102914.66;5243460;28;20167;-81
2023/12/15 06:10:36;;;;;;;114.33;53.63;;;;;;;6.06;100.00;102911.25;5243038;28;20129;-80
2023/12/15 06:13:09;;;;;;;104.30;50.77;;;;;;;6.09;100.00;102903.59;5242379;28;20158;-79
2023/12/15 06:15:40;;;;;;;;;;;;;;;6.10;100.00;102909.66;5243689;28;20354;-80
2023/12/15 06:18:12;;;;;;;115.07;53.55;;;;;;;6.08;100.00;102919.94;5241967;28;19917;-79
2023/12/15 06:20:43;;;;;;;116.27;54.77;;;;;;;6.08;100.00;102925.13;5242357;28;20037;-80
2023/12/15 06:23:15;;;;;;;113.47;54.17;;;;;;;6.09;100.00;102931.22;5243085;28;20045;-80
2023/12/15 06:25:46;;;;;;;108.10;55.30;;;;;;;6.08;100.00;102938.06;5188625;28;20036;-79
2023/12/15 06:28:17;;;;;;;112.60;54.77;;;;;;;6.10;100.00;102936.44;5130753;28;20066;-78
2023/12/15 06:30:49;;;;;;;118.13;55.83;;;;;;;6.12;100.00;102936.50;5141830;28;20035;-80
2023/12/15 06:33:20;;;;;;;106.00;54.30;;;;;;;6.12;100.00;102939.97;5137345;29;20485;-78
2023/12/15 06:35:51;;;;;;;116.50;55.50;;;;;;;6.13;100.00;102958.97;5137013;29;20035;-81
2023/12/15 06:38:23;;;;;;;115.10;56.90;;;;;;;6.15;100.00;102962.50;5137139;29;20101;-79
2023/12/15 06:40:54;;;;;;;106.53;54.73;;;;;;;6.15;100.00;102954.72;5135929;28;20478;-78
2023/12/15 06:43:26;;;;;;;112.43;56.70;;;;;;;6.16;100.00;102959.97;5133882;28;20051;-81
2023/12/15 06:45:58;;;;;;;116.13;58.30;;;;;;;6.19;100.00;102965.28;5136814;29;20107;-80
2023/12/15 06:48:29;;;;;;;121.93;57.60;;;;;;;6.18;100.00;102962.63;5135665;28;20280;-80
2023/12/15 06:51:01;;;;;;;121.60;56.67;;;;;;;6.19;100.00;102960.09;5135943;29;20028;-79
2023/12/15 06:53:32;;;;;;;110.40;55.70;;;;;;;6.23;100.00;102973.19;5136871;29;20036;-79
2023/12/15 06:56:04;;;;;;;118.93;56.33;;;;;;;6.22;100.00;102969.72;5137894;28;20529;-79
2023/12/15 06:58:35;;;;;;;117.50;58.20;;;;;;;6.24;100.00;102969.78;5135014;29;20050;-79
2023/12/15 07:01:07;;;;;;;116.07;59.83;;;;;;;6.26;100.00;102976.78;5134499;28;20111;-79
2023/12/15 07:03:38;;;;;;;115.30;54.87;;;;;;;6.26;100.00;102984.53;5135978;28;20115;-79
2023/12/15 07:06:10;;;;;;;112.03;54.73;;;;;;;6.27;100.00;102993.22;5203752;28;20047;-79
2023/12/15 07:08:41;;;;;;;112.87;54.47;;;;;;;6.27;100.00;102995.81;5135938;28;20032;-80
2023/12/15 07:11:13;;;;;;;108.77;54.73;;;;;;;6.28;100.00;102994.97;5137778;28;20050;-80
2023/12/15 07:13:45;;;;;;;107.87;53.23;;;;;;;6.30;100.00;103003.69;5135890;28;20082;-80
2023/12/15 07:16:16;;;;;;;117.53;56.78;;;;;;;6.29;100.00;103007.97;5136241;29;20063;-79
2023/12/15 07:18:48;;;;;;;110.10;57.23;;;;;;;6.30;100.00;103008.88;5137258;28;20120;-79
2023/12/15 07:21:19;;;;;;;109.33;56.00;;;;;;;6.31;100.00;103014.13;5137458;29;20158;-80
2023/12/15 07:23:50;;;;;;;117.27;56.13;;;;;;;6.32;100.00;103017.59;5135657;29;20036;-79
2023/12/15 07:26:22;;;;;;;118.17;56.80;;;;;;;6.32;100.00;103021.06;5137544;28;20036;-80
2023/12/15 07:28:53;;;;;;;113.13;56.07;;;;;;;6.32;100.00;103020.19;5137060;28;20040;-79
2023/12/15 07:31:24;;;;;;;123.63;58.30;;;;;;;6.32;100.00;103039.19;5136245;28;20585;-81
2023/12/15 07:33:56;;;;;;;115.20;55.27;;;;;;;6.33;100.00;103029.72;5135658;28;20109;-79
2023/12/15 07:36:27;;;;;;;112.53;55.97;;;;;;;6.32;100.00;103023.66;5138045;28;20032;-80
2023/12/15 07:38:59;;;;;;;114.47;55.93;;;;;;;6.33;100.00;103029.72;5137302;28;20031;-81
2023/12/15 07:41:30;;;;;;;121.00;57.47;;;;;;;6.32;100.00;103036.59;5137784;29;20032;-81
2023/12/15 07:44:01;;;;;;;111.97;54.07;;;;;;;6.33;100.00;103047.88;5137146;28;20121;-81
2023/12/15 07:46:33;;;;;;;108.53;52.90;;;;;;;6.33;100.00;103050.47;5139179;28;20052;-81
2023/12/15 07:49:05;;;;;;;111.00;54.07;;;;;;;6.35;100.00;103048.81;5136034;29;20039;-80
2023/12/15 07:51:37;;;;;;;107.47;55.05;;;;;;;6.33;100.00;103037.50;5137469;28;20133;-79
2023/12/15 07:54:08;;;;;;;101.47;51.90;;;;;;;6.35;100.00;103043.63;5136895;28;20123;-81
2023/12/15 07:56:39;;;;;;;116.43;53.57;;;;;;;6.35;100.00;103049.69;5219865;28;20040;-81
2023/12/15 07:59:11;;;;;;;115.60;54.27;;;;;;;6.35;100.00;103046.22;5137078;29;20058;-81
2023/12/15 08:01:52;;;;;;;114.47;51.93;;;;;;;6.37;100.00;103042.84;5137831;29;20035;-80
2023/12/15 08:04:23;;;;;;;112.97;54.00;;;;;;;6.37;100.00;103053.22;5137753;29;20032;-81
2023/12/15 08:06:54;;;;;;;120.47;57.37;;;;;;;6.38;100.00;103060.16;5219595;28;20027;-80
2023/12/15 08:09:26;;;;;;;111.97;54.97;;;;;;;6.40;100.00;103065.41;5137592;29;20133;-80
2023/12/15 08:11:57;;;;;;;108.50;53.07;;;;;;;6.41;100.00;103074.97;5137347;29;20082;-80
2023/12/15 08:14:29;;;;;;;102.13;53.13;;;;;;;6.41;100.00;103071.47;5135884;29;20031;-80
2023/12/15 08:17:00;;;;;;;109.63;52.37;;;;;;;6.39;100.00;103079.19;5137275;29;20364;-78
2023/12/15 08:19:31;;;;;;;104.27;52.10;;;;;;;6.40;100.00;103080.97;5137539;29;20050;-79
2023/12/15 08:22:03;;;;;;;106.33;52.67;;;;;;;6.42;100.00;103089.66;5137305;29;20046;-79
2023/12/15 08:24:35;;;;;;;104.97;52.47;;;;;;;6.44;100.00;103103.59;5136836;29;20475;-79
2023/12/15 08:27:06;;;;;;;107.70;54.50;;;;;;;6.42;100.00;103105.22;5137160;29;20110;-78
2023/12/15 08:29:37;;;;;;;105.70;53.07;;;;;;;6.45;100.00;103100.16;5137305;29;20032;-79
2023/12/15 08:32:09;;;;;;;103.53;49.07;;;;;;;6.47;100.00;103100.22;5137094;29;20150;-78
2023/12/15 08:34:42;;;;;;;100.03;49.17;;;;;;;6.48;100.00;103109.78;5137442;29;20435;-79
2023/12/15 08:37:13;;;;;;;98.47;50.03;;;;;;;6.49;100.00;103121.94;5136970;29;20074;-81
2023/12/15 08:39:45;;;;;;;97.20;50.83;;;;;;;6.51;100.00;103122.88;5137326;29;20837;-79
2023/12/15 08:42:16;;;;;;;95.17;47.50;;;;;;;6.53;100.00;103132.47;5137072;29;20475;-79
2023/12/15 08:44:47;;;;;;;102.83;47.57;;;;;;;6.57;100.00;103139.56;5136927;29;20051;-80
2023/12/15 08:47:19;;;;;;;91.37;46.80;;;;;;;6.61;100.00;103145.75;5137130;29;20032;-81
2023/12/15 08:49:50;;;;;;;91.67;46.30;;;;;;;6.63;100.00;103159.63;5135732;29;20043;-80
2023/12/15 08:52:21;;;;;;;89.97;45.00;;;;;;;6.66;100.00;103161.50;5137048;29;20071;-80
2023/12/15 08:54:53;;;;;;;91.60;46.90;;;;;;;6.68;100.00;103170.19;5137206;29;20047;-80
2023/12/15 08:57:25;;;;;;;81.30;46.47;;;;;;;6.70;100.00;103160.81;5151697;29;20114;-79
2023/12/15 08:59:56;;;;;;;83.38;44.45;;;;;;;6.71;100.00;103154.78;5136741;29;20047;-79
2023/12/15 09:02:28;;;;;;;89.10;44.70;;;;;;;6.73;100.00;103163.53;5151277;28;20044;-80
2023/12/15 09:05:00;;;;;;;80.03;44.07;;;;;;;6.71;100.00;103167.75;5136927;29;20036;-80
2023/12/15 09:07:32;;;;;;;80.75;45.10;;;;;;;6.79;100.00;103173.25;5217875;28;20489;-80
2023/12/15 09:10:04;;;;;;;86.50;42.47;;;;;;;6.79;100.00;103175.84;5136846;29;20035;-80
2023/12/15 09:12:36;;;;;;;78.00;42.78;;;;;;;6.81;100.00;103161.22;5136311;28;20056;-79
2023/12/15 09:15:07;;;;;;;76.77;44.73;;;;;;;6.84;100.00;103166.53;5151344;28;20498;-81
2023/12/15 09:17:41;;;;;;;72.03;39.33;;;;;;;6.85;100.00;103171.78;5151183;28;20182;-80
2023/12/15 09:20:13;;;;;;;78.28;40.65;;;;;;;6.84;100.00;103169.13;5136799;29;20036;-80
2023/12/15 09:22:45;;;;;;;72.27;41.50;;;;;;;6.87;100.00;103179.63;5136409;29;20040;-80
2023/12/15 09:25:16;;;;;;;70.47;38.50;;;;;;;6.88;100.00;103191.78;5136456;29;20063;-81
2023/12/15 09:27:48;;;;;;;68.20;38.33;;;;;;;6.87;100.00;103197.78;5151265;28;20032;-80
2023/12/15 09:30:19;;;;;;;63.80;38.80;;;;;;;6.91;100.00;103191.91;5136331;29;20494;-81
2023/12/15 09:32:50;;;;;;;74.27;39.53;;;;;;;6.96;100.00;103205.94;5136680;29;20036;-81
2023/12/15 09:35:22;;;;;;;65.17;38.13;;;;;;;7.02;100.00;103205.28;5137138;29;20050;-81
2023/12/15 09:37:53;;;;;;;60.53;36.03;;;;;;;7.00;100.00;103206.94;5139717;29;20043;-80
2023/12/15 09:40:27;;;;;;;64.87;37.30;;;;;;;7.02;100.00;103215.66;5140077;29;20046;-80
2023/12/15 09:42:59;;;;;;;68.25;35.75;;;;;;;7.06;100.00;103227.94;5139744;29;20498;-80
2023/12/15 09:45:30;;;;;;;63.97;36.83;;;;;;;7.04;100.00;103234.78;5139528;29;20032;-81
2023/12/15 09:48:06;;;;;;;60.77;35.80;;;;;;;7.07;100.00;103232.34;5139440;29;20090;-80
2023/12/15 09:50:39;;;;;;;62.03;36.00;;;;;;;7.06;100.00;103243.50;5139823;28;20032;-80
2023/12/15 09:53:12;;;;;;;59.38;34.88;;;;;;;7.04;100.00;103250.34;5139810;29;20036;-81
2023/12/15 09:55:44;;;;;;;65.53;35.63;;;;;;;7.00;100.00;103254.50;5203710;28;20062;-81
2023/12/15 09:58:15;;;;;;;57.92;32.95;;;;;;;6.98;100.00;103266.53;5140578;29;20039;-80
2023/12/15 10:00:47;;;;;;;54.83;33.00;;;;;;;7.00;100.00;103267.47;5139172;29;20043;-80
2023/12/15 10:03:19;;;;;;;57.17;32.33;;;;;;;7.00;100.00;103258.81;5138445;28;20062;-80
2023/12/15 10:05:50;;;;;;;59.40;31.50;;;;;;;6.99;100.00;103262.22;5138852;29;20064;-80
2023/12/15 10:08:23;;;;;;;52.43;31.23;;;;;;;7.02;100.00;103268.44;5139208;29;20115;-80
2023/12/15 10:10:55;;;;;;;51.35;31.10;;;;;;;7.04;100.00;103274.56;5139577;28;20035;-80
2023/12/15 10:13:26;;;;;;;51.80;32.03;;;;;;;7.05;100.00;103278.03;5139411;29;20048;-81
2023/12/15 10:15:57;;;;;;;49.33;29.70;;;;;;;7.00;100.00;103276.97;5138178;29;20036;-81
2023/12/15 10:18:30;;;;;;;56.07;29.43;;;;;;;7.03;100.00;103284.88;5135880;28;20062;-81
2023/12/15 10:21:01;;;;;;;56.63;31.38;;;;;;;7.03;100.00;103288.34;5136292;29;20359;-80
2023/12/15 10:23:32;;;;;;;49.90;30.27;;;;;;;7.06;100.00;103288.47;5136719;28;20035;-80
2023/12/15 10:26:05;;;;;;;48.23;28.63;;;;;;;7.09;100.00;103292.94;5136349;28;20033;-81
2023/12/15 10:28:38;;;;;;;50.88;30.50;;;;;;;7.15;100.00;103305.25;5139149;29;20042;-80
2023/12/15 10:31:10;;;;;;;46.88;27.83;;;;;;;7.22;100.00;103307.28;5138871;29;20031;-79
2023/12/15 10:33:43;;;;;;;45.07;29.63;;;;;;;7.23;100.00;103307.34;5136147;29;20031;-79
2023/12/15 10:36:15;;;;;;;44.47;29.58;;;;;;;7.25;100.00;103318.69;5137128;29;20040;-79
2023/12/15 10:38:46;;;;;;;46.75;28.95;;;;;;;7.29;100.00;103318.00;5138664;29;20035;-79
2023/12/15 10:41:18;;;;;;;40.83;26.83;;;;;;;7.32;100.00;103316.34;5135618;28;20046;-79
2023/12/15 10:43:51;;;;;;;42.47;26.50;;;;;;;7.34;100.00;103325.06;5137878;29;20194;-80
2023/12/15 10:46:22;;;;;;;43.80;26.90;;;;;;;7.36;100.00;103329.50;5138309;29;20036;-79
2023/12/15 10:48:54;;;;;;;47.10;26.37;;;;;;;7.36;100.00;103333.78;5134071;28;20374;-79
2023/12/15 10:51:26;;;;;;;40.30;26.37;;;;;;;7.37;100.00;103338.16;5137964;29;20127;-79
2023/12/15 10:53:58;;;;;;;45.15;27.15;;;;;;;7.39;100.00;103337.44;5137225;29;20082;-79
2023/12/15 10:56:30;;;;;;;46.13;27.13;;;;;;;7.42;100.00;103342.75;5135950;28;20106;-80
2023/12/15 10:59:01;;;;;;;42.63;24.80;;;;;;;7.43;100.00;103354.00;5138189;28;20268;-80
2023/12/15 11:01:35;;;;;;;38.90;23.93;;;;;;;7.45;100.00;103344.56;5138009;28;20475;-78
2023/12/15 11:04:19;;;;;;;36.20;21.83;;;;;;;7.45;100.00;103363.63;5142996;29;20043;-81
2023/12/15 11:06:50;;;;;;;36.63;23.02;;;;;;;7.37;100.00;103369.31;5147807;28;20031;-80
2023/12/15 11:09:30;;;;;;;36.27;22.50;;;;;;;7.32;100.00;103382.09;5148338;29;20482;-79
2023/12/15 11:12:30;;;;;;;40.45;22.98;;;;;;;7.38;100.00;103384.94;5150919;29;20079;-80
2023/12/15 11:15:10;;;;;;;42.20;22.20;;;;;;;7.37;100.00;103388.34;5149518;29;20032;-78
2023/12/15 11:18:01;;;;;;;43.35;26.25;;;;;;;7.43;100.00;103388.63;5142933;28;20356;-80
2023/12/15 11:20:34;;;;;;;35.63;23.35;;;;;;;7.45;100.00;103381.81;5133011;28;20039;-80
2023/12/15 11:23:08;;;;;;;37.72;22.27;;;;;;;7.50;100.00;103379.38;5137065;28;20115;-79
2023/12/15 11:25:45;;;;;;;32.22;20.90;;;;;;;7.57;100.00;103389.19;5135788;29;20074;-80
2023/12/15 11:28:18;;;;;;;39.00;21.85;;;;;;;7.58;100.00;103385.78;5136204;28;20503;-80